createdAt,value
2019-01-10T00:01:24.491Z,96677.00
2019-01-10T00:03:55.666Z,96671.95
2019-01-10T00:06:26.766Z,96677.98
2019-01-10T00:08:57.742Z,96678.45
2019-01-10T00:11:28.780Z,96683.02
2019-01-10T00:14:00.107Z,96686.57
2019-01-10T00:16:31.071Z,96684.95
2019-01-10T00:19:02.357Z,96682.19
2019-01-10T00:21:33.317Z,96687.87
2019-01-10T00:24:05.322Z,96682.86
2019-01-10T00:26:36.611Z,96683.97
2019-01-10T00:29:07.687Z,96684.64
2019-01-10T00:31:38.961Z,96685.78
2019-01-10T00:34:10.251Z,96691.77
2019-01-10T00:36:41.205Z,96693.27
2019-01-10T00:39:12.395Z,96687.23
2019-01-10T00:41:43.350Z,96703.16
2019-01-10T00:44:15.437Z,96706.58
2019-01-10T00:46:46.502Z,96704.30
2019-01-10T00:49:17.548Z,96709.66
2019-01-10T00:51:48.582Z,96713.89
2019-01-10T00:54:19.939Z,96717.30
2019-01-10T00:56:50.970Z,96714.39
2019-01-10T00:59:22.029Z,96722.51
2019-01-10T01:01:52.985Z,96728.02
2019-01-10T01:04:24.009Z,96731.30
2019-01-10T01:06:54.969Z,96725.25
2019-01-10T01:09:26.019Z,96730.31
2019-01-10T01:11:57.428Z,96737.42
2019-01-10T01:14:28.478Z,96740.84
2019-01-10T01:16:59.437Z,96744.45
2019-01-10T01:19:30.556Z,96740.86
2019-01-10T01:22:01.875Z,96744.91
2019-01-10T01:24:32.866Z,96742.83
2019-01-10T01:27:04.083Z,96744.59
2019-01-10T01:29:35.186Z,96750.27
2019-01-10T01:32:06.217Z,96750.91
2019-01-10T01:34:37.259Z,96754.17
2019-01-10T01:37:08.456Z,96764.11
2019-01-10T01:39:39.501Z,96762.17
2019-01-10T01:42:10.722Z,96763.12
2019-01-10T01:44:41.787Z,96763.80
2019-01-10T01:47:12.748Z,96765.73
2019-01-10T01:49:43.793Z,96771.59
2019-01-10T01:52:14.897Z,96766.39
2019-01-10T01:54:45.943Z,96776.95
2019-01-10T01:57:17.279Z,96775.98
2019-01-10T01:59:48.325Z,96787.55
2019-01-10T02:02:19.355Z,96778.59
2019-01-10T02:04:50.335Z,96779.74
2019-01-10T02:07:21.547Z,96776.98
2019-01-10T02:09:52.883Z,96783.98
2019-01-10T02:12:24.346Z,96784.45
2019-01-10T02:14:55.464Z,96788.67
2019-01-10T02:17:26.834Z,96786.52
2019-01-10T02:19:57.909Z,96791.45
2019-01-10T02:22:29.223Z,96792.28
2019-01-10T02:25:00.700Z,96792.92
2019-01-10T02:27:31.623Z,96794.53
2019-01-10T02:30:02.697Z,96794.53
2019-01-10T02:32:33.840Z,96800.06
2019-01-10T02:35:06.699Z,96799.92
2019-01-10T02:37:37.734Z,96800.89
2019-01-10T02:40:20.448Z,96805.29
2019-01-10T02:42:51.487Z,96807.50
2019-01-10T02:45:22.554Z,96805.59
2019-01-10T02:47:53.773Z,96806.55
2019-01-10T02:50:24.988Z,96798.42
2019-01-10T02:52:55.954Z,96806.22
2019-01-10T02:55:27.084Z,96803.48
2019-01-10T02:57:58.338Z,96810.47
2019-01-10T03:00:31.491Z,96805.74
2019-01-10T03:03:02.231Z,96805.72
2019-01-10T03:05:33.585Z,96801.98
2019-01-10T03:08:04.824Z,96800.52
2019-01-10T03:10:35.951Z,96801.34
2019-01-10T03:13:07.264Z,96804.59
2019-01-10T03:15:38.329Z,96805.91
2019-01-10T03:18:09.434Z,96798.60
2019-01-10T03:20:40.407Z,96800.22
2019-01-10T03:23:11.605Z,96795.52
2019-01-10T03:25:42.697Z,96797.94
2019-01-10T03:28:13.888Z,96800.08
2019-01-10T03:30:45.257Z,96796.47
2019-01-10T03:33:16.550Z,96797.45
2019-01-10T03:35:47.525Z,96787.82
2019-01-10T03:38:18.808Z,96793.03
2019-01-10T03:40:49.878Z,96792.55
2019-01-10T03:43:20.936Z,96798.41
2019-01-10T03:45:52.159Z,96798.60
2019-01-10T03:48:23.129Z,96794.22
2019-01-10T03:50:54.444Z,96798.09
2019-01-10T03:53:25.656Z,96790.28
2019-01-10T03:55:57.001Z,96790.80
2019-01-10T03:58:27.944Z,96792.55
2019-01-10T04:00:59.237Z,96792.23
2019-01-10T04:03:30.206Z,96794.52
2019-01-10T04:06:01.510Z,96792.55
2019-01-10T04:08:32.471Z,96795.48
2019-01-10T04:11:04.786Z,96791.29
2019-01-10T04:13:35.777Z,96795.50
2019-01-10T04:16:06.905Z,96793.04
2019-01-10T04:18:38.237Z,96789.14
2019-01-10T04:21:16.858Z,96793.20
2019-01-10T04:23:42.039Z,96795.78
2019-01-10T04:26:13.103Z,96797.11
2019-01-10T04:28:44.070Z,96801.81
2019-01-10T04:31:15.198Z,96808.19
2019-01-10T04:33:46.390Z,96804.44
2019-01-10T04:36:17.364Z,96810.91
2019-01-10T04:38:48.516Z,96809.33
2019-01-10T04:41:19.570Z,96812.73
2019-01-10T04:43:50.537Z,96815.02
2019-01-10T04:46:21.823Z,96816.46
2019-01-10T04:48:53.066Z,96817.59
2019-01-10T04:51:24.447Z,96815.95
2019-01-10T04:53:56.003Z,96822.64
2019-01-10T04:56:27.028Z,96819.06
2019-01-10T04:58:59.009Z,96821.19
2019-01-10T05:01:30.053Z,96822.16
2019-01-10T05:04:01.366Z,96826.08
2019-01-10T05:06:32.583Z,96829.97
2019-01-10T05:09:06.976Z,96831.44
2019-01-10T05:11:37.993Z,96827.70
2019-01-10T05:14:16.382Z,96825.12
2019-01-10T05:16:41.679Z,96828.69
2019-01-10T05:19:12.649Z,96829.84
2019-01-10T05:21:43.981Z,96832.26
2019-01-10T05:24:15.064Z,96839.41
2019-01-10T05:26:46.774Z,96833.55
2019-01-10T05:29:17.821Z,96836.65
2019-01-10T05:31:48.920Z,96840.00
2019-01-10T05:34:20.209Z,96844.27
2019-01-10T05:36:51.173Z,96848.64
2019-01-10T05:39:22.144Z,96853.41
2019-01-10T05:41:53.197Z,96853.22
2019-01-10T05:44:26.717Z,96854.86
2019-01-10T05:46:56.960Z,96859.55
2019-01-10T05:49:28.206Z,96861.23
2019-01-10T05:51:59.166Z,96870.18
2019-01-10T05:54:30.133Z,96871.48
2019-01-10T05:57:01.105Z,96877.98
2019-01-10T05:59:32.355Z,96877.15
2019-01-10T06:02:04.660Z,96878.92
2019-01-10T06:04:35.677Z,96874.84
2019-01-10T06:07:06.913Z,96877.63
2019-01-10T06:09:37.878Z,96887.52
2019-01-10T06:12:09.179Z,96891.77
2019-01-10T06:14:40.448Z,96893.36
2019-01-10T06:17:11.417Z,96892.44
2019-01-10T06:19:42.711Z,96889.83
2019-01-10T06:22:13.685Z,96889.67
2019-01-10T06:24:44.930Z,96890.45
2019-01-10T06:27:16.591Z,96895.65
2019-01-10T06:29:47.559Z,96899.72
2019-01-10T06:32:18.824Z,96899.22
2019-01-10T06:34:50.219Z,96896.95
2019-01-10T06:37:21.454Z,96908.34
2019-01-10T06:39:52.420Z,96911.96
2019-01-10T06:42:23.751Z,96912.73
2019-01-10T06:44:54.786Z,96913.52
2019-01-10T06:47:27.829Z,96921.00
2019-01-10T06:49:58.795Z,96923.13
2019-01-10T06:52:29.767Z,96916.16
2019-01-10T06:55:00.970Z,96934.53
2019-01-10T06:57:32.266Z,96927.17
2019-01-10T07:00:03.621Z,96933.67
2019-01-10T07:02:36.042Z,96930.92
2019-01-10T07:05:07.551Z,96933.03
2019-01-10T07:07:38.876Z,96936.30
2019-01-10T07:10:16.228Z,96941.49
2019-01-10T07:12:47.204Z,96938.94
2019-01-10T07:15:19.121Z,96947.38
2019-01-10T07:17:51.264Z,96944.66
2019-01-10T07:20:22.360Z,96952.76
2019-01-10T07:22:54.993Z,96957.78
2019-01-10T07:25:26.267Z,96955.02
2019-01-10T07:27:57.238Z,96948.20
2019-01-10T07:30:35.819Z,96959.08
2019-01-10T07:33:01.710Z,96958.06
2019-01-10T07:35:32.671Z,96962.66
2019-01-10T07:38:08.467Z,96967.30
2019-01-10T07:40:41.153Z,96964.26
2019-01-10T07:43:12.127Z,96965.86
2019-01-10T07:45:43.261Z,96967.48
2019-01-10T07:48:14.371Z,96967.13
2019-01-10T07:50:45.336Z,96962.47
2019-01-10T07:53:16.393Z,96966.71
2019-01-10T07:55:47.344Z,96963.24
2019-01-10T07:58:18.496Z,96971.09
2019-01-10T08:00:49.531Z,96967.37
2019-01-10T08:03:21.796Z,96975.73
2019-01-10T08:05:52.856Z,96971.68
2019-01-10T08:08:23.974Z,96984.79
2019-01-10T08:10:55.108Z,96987.77
2019-01-10T08:13:26.394Z,96992.74
2019-01-10T08:15:57.667Z,96993.89
2019-01-10T08:18:28.733Z,96998.40
2019-01-10T08:20:59.963Z,97001.72
2019-01-10T08:23:30.947Z,97001.44
2019-01-10T08:26:01.997Z,97007.27
2019-01-10T08:28:34.553Z,97015.50
2019-01-10T08:31:06.945Z,97015.88
2019-01-10T08:33:37.954Z,97016.06
2019-01-10T08:36:08.976Z,97026.78
2019-01-10T08:38:39.954Z,97023.50
2019-01-10T08:41:10.984Z,97035.61
2019-01-10T08:43:42.034Z,97032.34
2019-01-10T08:46:13.048Z,97033.50
2019-01-10T08:48:44.379Z,97035.77
2019-01-10T08:51:15.514Z,97039.53
2019-01-10T08:53:53.737Z,97041.17
2019-01-10T08:56:19.319Z,97043.15
2019-01-10T08:58:50.435Z,97041.13
2019-01-10T09:01:21.842Z,97049.09
2019-01-10T09:03:53.293Z,97045.31
2019-01-10T09:06:24.255Z,97050.23
2019-01-10T09:08:55.303Z,97050.71
2019-01-10T09:11:27.049Z,97047.31
2019-01-10T09:13:58.383Z,97053.77
2019-01-10T09:16:29.429Z,97054.13
2019-01-10T09:19:00.489Z,97056.16
2019-01-10T09:21:31.535Z,97059.05
2019-01-10T09:24:02.524Z,97063.59
2019-01-10T09:26:37.714Z,97069.17
2019-01-10T09:29:07.600Z,97068.39
2019-01-10T09:31:38.954Z,97075.69
2019-01-10T09:34:09.923Z,97068.54
2019-01-10T09:36:40.952Z,97070.65
2019-01-10T09:39:12.280Z,97067.71
2019-01-10T09:41:43.244Z,97069.02
2019-01-10T09:44:15.203Z,97077.62
2019-01-10T09:46:46.309Z,97077.69
2019-01-10T09:49:17.356Z,97077.05
2019-01-10T09:51:48.678Z,97077.37
2019-01-10T09:54:19.719Z,97081.45
2019-01-10T09:56:51.134Z,97084.33
2019-01-10T09:59:22.316Z,97089.06
2019-01-10T10:01:53.422Z,97086.09
2019-01-10T10:04:24.825Z,97086.59
2019-01-10T10:06:56.145Z,97089.66
2019-01-10T10:09:27.348Z,97098.92
2019-01-10T10:11:58.684Z,97093.88
2019-01-10T10:14:29.666Z,97089.27
2019-01-10T10:17:01.085Z,97090.58
2019-01-10T10:19:32.443Z,97093.85
2019-01-10T10:22:06.155Z,97089.14
2019-01-10T10:24:37.148Z,97094.87
2019-01-10T10:27:09.540Z,97096.50
2019-01-10T10:29:40.508Z,97100.73
2019-01-10T10:32:11.636Z,97099.86
2019-01-10T10:34:42.745Z,97105.89
2019-01-10T10:37:13.705Z,97107.34
2019-01-10T10:39:45.360Z,97105.41
2019-01-10T10:42:16.398Z,97112.25
2019-01-10T10:44:47.368Z,97100.86
2019-01-10T10:47:18.507Z,97100.48
2019-01-10T10:49:49.616Z,97100.83
2019-01-10T10:52:20.975Z,97107.31
2019-01-10T10:54:52.076Z,97105.23
2019-01-10T10:57:23.633Z,97103.91
2019-01-10T10:59:54.634Z,97109.49
2019-01-10T11:02:26.269Z,97108.69
2019-01-10T11:04:57.265Z,97109.21
2019-01-10T11:07:28.248Z,97108.98
2019-01-10T11:09:59.314Z,97103.16
2019-01-10T11:12:30.281Z,97106.39
2019-01-10T11:15:01.673Z,97107.91
2019-01-10T11:17:32.848Z,97103.03
2019-01-10T11:20:04.344Z,97104.16
2019-01-10T11:22:36.537Z,97104.16
2019-01-10T11:25:11.754Z,97104.36
2019-01-10T11:27:42.785Z,97100.43
2019-01-10T11:30:17.137Z,97106.06
2019-01-10T11:32:48.437Z,97100.75
2019-01-10T11:35:19.801Z,97107.30
2019-01-10T11:37:51.113Z,97107.63
2019-01-10T11:40:23.293Z,97103.23
2019-01-10T11:42:54.771Z,97099.52
2019-01-10T11:45:27.580Z,97102.61
2019-01-10T11:47:58.948Z,97102.74
2019-01-10T11:50:29.993Z,97099.06
2019-01-10T11:53:01.034Z,97094.01
2019-01-10T11:55:32.250Z,97100.14
2019-01-10T11:58:03.365Z,97100.53
2019-01-10T12:00:35.724Z,97097.36
2019-01-10T12:03:08.890Z,97091.21
2019-01-10T12:05:47.859Z,97091.72
2019-01-10T12:08:16.389Z,97097.05
2019-01-10T12:10:47.388Z,97092.46
2019-01-10T12:13:18.794Z,97092.01
2019-01-10T12:15:50.748Z,97091.86
2019-01-10T12:18:21.790Z,97091.05
2019-01-10T12:20:53.673Z,97091.57
2019-01-10T12:23:25.307Z,97093.88
2019-01-10T12:25:56.282Z,97086.05
2019-01-10T12:28:27.396Z,97093.16
2019-01-10T12:30:58.648Z,97088.76
2019-01-10T12:33:29.869Z,97092.20
2019-01-10T12:36:00.852Z,97091.89
2019-01-10T12:38:31.818Z,97084.37
2019-01-10T12:41:03.340Z,97086.22
2019-01-10T12:43:34.612Z,97091.59
2019-01-10T12:46:06.168Z,97090.41
2019-01-10T12:48:37.225Z,97090.55
2019-01-10T12:51:10.540Z,97080.31
2019-01-10T12:53:41.777Z,97080.95
2019-01-10T12:56:12.745Z,97081.58
2019-01-10T12:58:44.549Z,97080.63
2019-01-10T13:01:15.883Z,97084.81
2019-01-10T13:03:47.240Z,97086.45
2019-01-10T13:06:18.354Z,97082.89
2019-01-10T13:08:50.372Z,97087.34
2019-01-10T13:11:21.496Z,97089.41
2019-01-10T13:13:52.783Z,97085.80
2019-01-10T13:16:23.844Z,97092.18
2019-01-10T13:18:54.946Z,97089.95
2019-01-10T13:21:26.316Z,97089.27
2019-01-10T13:23:57.521Z,97092.33
2019-01-10T13:26:28.619Z,97092.06
2019-01-10T13:28:59.647Z,97095.95
2019-01-10T13:31:31.134Z,97092.69
2019-01-10T13:34:02.257Z,97095.61
2019-01-10T13:36:33.350Z,97097.53
2019-01-10T13:39:07.786Z,97105.72
2019-01-10T13:41:39.308Z,97107.23
2019-01-10T13:44:10.571Z,97104.57
2019-01-10T13:46:41.724Z,97101.64
2019-01-10T13:49:12.770Z,97101.84
2019-01-10T13:51:43.763Z,97098.58
2019-01-10T13:54:14.771Z,97102.97
2019-01-10T13:56:46.020Z,97102.42
2019-01-10T13:59:17.231Z,97104.74
2019-01-10T14:01:48.329Z,97108.20
2019-01-10T14:04:20.053Z,97110.80
2019-01-10T14:06:51.390Z,97114.66
2019-01-10T14:09:22.587Z,97117.44
2019-01-10T14:11:55.211Z,97123.44
2019-01-10T14:14:27.045Z,97122.02
2019-01-10T14:17:01.588Z,97123.77
2019-01-10T14:19:31.228Z,97125.20
2019-01-10T14:22:02.394Z,97129.45
2019-01-10T14:24:33.425Z,97128.96
2019-01-10T14:27:05.377Z,97134.77
2019-01-10T14:29:36.777Z,97133.81
2019-01-10T14:32:08.081Z,97135.27
2019-01-10T14:34:39.115Z,97139.84
2019-01-10T14:37:10.354Z,97138.55
2019-01-10T14:39:41.672Z,97145.08
2019-01-10T14:42:13.124Z,97143.13
2019-01-10T14:44:44.391Z,97137.22
2019-01-10T14:47:15.933Z,97142.67
2019-01-10T14:49:47.434Z,97141.88
2019-01-10T14:52:18.481Z,97146.95
2019-01-10T14:54:49.922Z,97145.83
2019-01-10T14:57:21.228Z,97151.41
2019-01-10T14:59:52.606Z,97147.10
2019-01-10T15:02:23.954Z,97151.21
2019-01-10T15:04:55.092Z,97153.77
2019-01-10T15:07:26.153Z,97156.81
2019-01-10T15:09:57.423Z,97155.22
2019-01-10T15:12:28.434Z,97155.36
2019-01-10T15:14:59.460Z,97160.27
2019-01-10T15:17:30.742Z,97160.77
2019-01-10T15:20:01.747Z,97179.14
2019-01-10T15:22:32.830Z,97176.89
2019-01-10T15:25:04.129Z,97168.45
2019-01-10T15:27:35.419Z,97172.89
2019-01-10T15:30:10.446Z,97176.12
2019-01-10T15:32:41.503Z,97173.03
2019-01-10T15:35:13.455Z,97178.92
2019-01-10T15:37:44.863Z,97182.09
2019-01-10T15:40:29.218Z,97176.31
2019-01-10T15:43:00.219Z,97182.83
2019-01-10T15:45:32.374Z,97181.97
2019-01-10T15:48:03.598Z,97187.83
2019-01-10T15:50:35.348Z,97183.84
2019-01-10T15:53:06.878Z,97189.23
2019-01-10T15:55:37.991Z,97192.59
2019-01-10T15:58:10.694Z,97187.09
2019-01-10T16:00:42.284Z,97191.83
2019-01-10T16:03:13.386Z,97199.34
2019-01-10T16:05:44.746Z,97197.36
2019-01-10T16:08:16.099Z,97195.23
2019-01-10T16:10:47.135Z,97195.34
2019-01-10T16:13:18.165Z,97203.39
2019-01-10T16:15:49.422Z,97197.06
2019-01-10T16:18:20.743Z,97199.31
2019-01-10T16:20:52.122Z,97203.34
2019-01-10T16:23:23.191Z,97213.21
2019-01-10T16:25:54.255Z,97217.26
2019-01-10T16:28:25.315Z,97211.37
2019-01-10T16:30:56.797Z,97213.33
2019-01-10T16:33:27.877Z,97216.91
2019-01-10T16:35:59.199Z,97219.09
2019-01-10T16:38:30.367Z,97223.80
2019-01-10T16:41:01.963Z,97223.59
2019-01-10T16:43:33.273Z,97222.73
2019-01-10T16:46:04.684Z,97225.48
2019-01-10T16:48:37.190Z,97232.41
2019-01-10T16:51:08.366Z,97235.66
2019-01-10T16:53:39.970Z,97226.97
2019-01-10T16:56:11.224Z,97227.97
2019-01-10T16:58:42.550Z,97228.59
2019-01-10T17:01:13.592Z,97229.98
2019-01-10T17:03:47.724Z,97229.03
2019-01-10T17:06:19.689Z,97227.62
2019-01-10T17:08:50.944Z,97232.14
2019-01-10T17:11:22.270Z,97234.95
2019-01-10T17:13:53.280Z,97230.91
2019-01-10T17:16:25.980Z,97232.29
2019-01-10T17:18:57.270Z,97235.98
2019-01-10T17:21:28.307Z,97236.31
2019-01-10T17:23:59.349Z,97242.48
2019-01-10T17:26:30.396Z,97240.76
2019-01-10T17:29:01.762Z,97243.28
2019-01-10T17:31:32.854Z,97243.42
2019-01-10T17:34:04.228Z,97243.22
2019-01-10T17:36:35.527Z,97243.94
2019-01-10T17:39:09.742Z,97244.77
2019-01-10T17:41:40.810Z,97240.53
2019-01-10T17:44:11.910Z,97245.49
2019-01-10T17:46:43.218Z,97250.30
2019-01-10T17:49:14.444Z,97248.95
2019-01-10T17:51:45.800Z,97254.42
2019-01-10T17:54:16.826Z,97257.56
2019-01-10T17:56:47.898Z,97262.26
2019-01-10T17:59:18.974Z,97270.25
2019-01-10T18:01:50.090Z,97264.03
2019-01-10T18:04:21.181Z,97268.44
2019-01-10T18:06:52.648Z,97267.32
2019-01-10T18:09:24.003Z,97268.22
2019-01-10T18:11:55.652Z,97269.59
2019-01-10T18:14:26.962Z,97277.80
2019-01-10T18:16:58.998Z,97284.30
2019-01-10T18:19:30.726Z,97274.80
2019-01-10T18:22:02.253Z,97281.05
2019-01-10T18:24:33.637Z,97282.81
2019-01-10T18:27:04.732Z,97275.52
2019-01-10T18:29:36.019Z,97281.80
2019-01-10T18:32:08.275Z,97275.62
2019-01-10T18:34:40.130Z,97279.77
2019-01-10T18:37:12.092Z,97283.58
2019-01-10T18:39:43.664Z,97287.94
2019-01-10T18:42:14.717Z,97289.16
2019-01-10T18:44:45.790Z,97288.70
2019-01-10T18:47:16.881Z,97287.19
2019-01-10T18:49:47.975Z,97289.61
2019-01-10T18:52:18.985Z,97289.97
2019-01-10T18:54:50.247Z,97280.87
2019-01-10T18:57:21.412Z,97288.06
2019-01-10T18:59:52.448Z,97290.33
2019-01-10T19:02:24.115Z,97285.89
2019-01-10T19:04:55.259Z,97289.79
2019-01-10T19:07:26.661Z,97293.30
2019-01-10T19:09:57.900Z,97298.47
2019-01-10T19:12:29.264Z,97298.65
2019-01-10T19:15:00.624Z,97289.25
2019-01-10T19:17:32.250Z,97289.91
2019-01-10T19:20:03.415Z,97296.38
2019-01-10T19:22:34.466Z,97302.22
2019-01-10T19:25:06.935Z,97300.53
2019-01-10T19:27:38.619Z,97301.00
2019-01-10T19:30:22.177Z,97306.20
2019-01-10T19:32:53.294Z,97308.08
2019-01-10T19:35:24.847Z,97308.08
2019-01-10T19:37:56.246Z,97305.38
2019-01-10T19:40:28.000Z,97301.66
2019-01-10T19:42:58.955Z,97304.58
2019-01-10T19:45:30.155Z,97305.81
2019-01-10T19:48:01.263Z,97297.79
2019-01-10T19:50:33.514Z,97298.19
2019-01-10T19:53:07.076Z,97301.66
2019-01-10T19:55:38.193Z,97307.98
2019-01-10T19:58:12.771Z,97314.52
2019-01-10T20:00:46.618Z,97313.04
2019-01-10T20:03:18.027Z,97312.63
2019-01-10T20:05:49.188Z,97317.37
2019-01-10T20:08:20.828Z,97321.42
2019-01-10T20:10:52.004Z,97323.34
2019-01-10T20:13:23.114Z,97320.38
2019-01-10T20:15:54.840Z,97325.27
2019-01-10T20:18:25.821Z,97322.72
2019-01-10T20:20:56.986Z,97326.05
2019-01-10T20:23:32.535Z,97329.23
2019-01-10T20:26:03.957Z,97329.48
2019-01-10T20:28:35.053Z,97332.41
2019-01-10T20:31:06.613Z,97331.55
2019-01-10T20:33:37.888Z,97332.88
2019-01-10T20:36:09.102Z,97335.84
2019-01-10T20:38:40.387Z,97332.52
2019-01-10T20:41:11.441Z,97343.30
2019-01-10T20:43:42.674Z,97342.20
2019-01-10T20:46:14.066Z,97346.00
2019-01-10T20:48:45.316Z,97335.16
2019-01-10T20:51:16.628Z,97339.02
2019-01-10T20:53:47.669Z,97335.73
2019-01-10T20:56:19.006Z,97329.83
2019-01-10T20:58:49.968Z,97337.72
2019-01-10T21:01:21.184Z,97340.22
2019-01-10T21:03:52.537Z,97344.12
2019-01-10T21:06:24.730Z,97343.33
2019-01-10T21:08:56.934Z,97341.77
2019-01-10T21:11:27.956Z,97350.22
2019-01-10T21:13:59.239Z,97347.84
2019-01-10T21:16:30.352Z,97347.84
2019-01-10T21:19:01.508Z,97344.61
2019-01-10T21:21:32.878Z,97345.30
2019-01-10T21:24:04.622Z,97341.48
2019-01-10T21:26:35.837Z,97340.42
2019-01-10T21:29:06.904Z,97337.03
2019-01-10T21:31:38.078Z,97339.13
2019-01-10T21:34:09.115Z,97346.54
2019-01-10T21:36:40.479Z,97350.12
2019-01-10T21:39:11.441Z,97354.22
2019-01-10T21:41:42.713Z,97351.02
2019-01-10T21:44:13.898Z,97359.66
2019-01-10T21:46:45.233Z,97356.64
2019-01-10T21:49:16.583Z,97357.72
2019-01-10T21:51:47.713Z,97358.69
2019-01-10T21:54:18.748Z,97367.00
2019-01-10T21:56:49.866Z,97359.15
2019-01-10T21:59:21.405Z,97350.23
2019-01-10T22:01:52.670Z,97352.64
2019-01-10T22:04:23.649Z,97349.07
2019-01-10T22:06:55.437Z,97362.59
2019-01-10T22:09:26.395Z,97354.63
2019-01-10T22:11:57.693Z,97357.80
2019-01-10T22:14:29.056Z,97355.16
2019-01-10T22:17:00.065Z,97353.25
2019-01-10T22:19:31.365Z,97354.36
2019-01-10T22:22:02.800Z,97346.02
2019-01-10T22:24:33.770Z,97349.11
2019-01-10T22:27:04.838Z,97346.84
2019-01-10T22:29:36.031Z,97345.45
2019-01-10T22:32:07.080Z,97344.70
2019-01-10T22:34:38.128Z,97334.08
2019-01-10T22:37:09.193Z,97334.08
2019-01-10T22:39:40.631Z,97336.26
2019-01-10T22:42:11.900Z,97331.63
2019-01-10T22:44:43.024Z,97333.14
2019-01-10T22:47:14.056Z,97341.74
2019-01-10T22:49:45.205Z,97344.98
2019-01-10T22:52:16.274Z,97345.50
2019-01-10T22:54:47.487Z,97336.30
2019-01-10T22:57:19.882Z,97342.63
2019-01-10T22:59:50.845Z,97336.29
2019-01-10T23:02:22.378Z,97340.33
2019-01-10T23:04:53.422Z,97335.96
2019-01-10T23:07:25.134Z,97333.78
2019-01-10T23:10:04.751Z,97337.30
2019-01-10T23:12:37.017Z,97337.94
2019-01-10T23:15:32.362Z,97335.78
2019-01-10T23:18:06.085Z,97335.50
2019-01-10T23:20:37.823Z,97335.23
2019-01-10T23:23:10.574Z,97342.10
2019-01-10T23:25:42.287Z,97335.08
2019-01-10T23:28:13.411Z,97345.17
2019-01-10T23:30:59.495Z,97339.04
2019-01-10T23:33:30.726Z,97343.88
2019-01-10T23:36:04.190Z,97339.73
2019-01-10T23:38:35.348Z,97346.98
2019-01-10T23:41:07.355Z,97348.16
2019-01-10T23:43:38.427Z,97341.53
2019-01-10T23:46:09.640Z,97336.42
2019-01-10T23:48:40.985Z,97334.11
2019-01-10T23:51:11.978Z,97332.77
2019-01-10T23:53:43.398Z,97332.31
2019-01-10T23:56:14.369Z,97338.36
2019-01-10T23:58:45.577Z,97345.41
